Time;durP1;ratioP1;P1;durP2;ratioP2;P2;SDS_P1;SDS_P2;PMS_P1;PMS_P2;Temp;Humidity;BMP_temperature;BMP_pressure;BME280_temperature;BME280_humidity;BME280_pressure;Samples;Min_cycle;Max_cycle;Signal;HPM_P1;HPM_P2
2021/05/19 00:00:02;;;;;;;;;;;20.30;42.70;;;;;;458708;258;983;-74
2021/05/19 00:02:04;;;;;;;;;;;20.20;42.70;;;;;;458636;258;1272;-74
2021/05/19 00:04:05;;;;;;;;;;;20.30;42.70;;;;;;454455;261;2157;-74
2021/05/19 00:06:06;;;;;;;;;;;20.20;42.80;;;;;;454440;261;1202;-74
2021/05/19 00:08:07;;;;;;;;;;;20.20;42.90;;;;;;454456;261;1057;-74
2021/05/19 00:10:09;;;;;;;;;;;20.20;42.80;;;;;;454400;261;982;-74
2021/05/19 00:12:10;;;;;;;;;;;20.10;42.90;;;;;;454379;261;1119;-74
2021/05/19 00:14:11;;;;;;;;;;;20.20;42.90;;;;;;454408;261;1209;-74
2021/05/19 00:16:12;;;;;;;;;;;20.10;42.90;;;;;;454341;261;1229;-74
2021/05/19 00:18:14;;;;;;;;;;;20.20;42.90;;;;;;454382;261;1065;-74
2021/05/19 00:20:15;;;;;;;;;;;20.20;42.80;;;;;;458789;258;986;-74
2021/05/19 00:22:16;;;;;;;;;;;20.30;42.80;;;;;;458671;258;1175;-74
2021/05/19 00:24:18;;;;;;;;;;;20.30;42.60;;;;;;454491;261;2208;-74
2021/05/19 00:26:19;;;;;;;;;;;20.30;42.50;;;;;;454441;262;1202;-74
2021/05/19 00:28:21;;;;;;;;;;;20.40;42.40;;;;;;454354;261;1109;-74
2021/05/19 00:30:22;;;;;;;;;;;20.30;42.40;;;;;;454430;257;1384;-74
2021/05/19 00:32:23;;;;;;;;;;;20.30;42.40;;;;;;458606;258;1137;-74
2021/05/19 00:34:24;;;;;;;;;;;20.20;42.40;;;;;;454425;261;1008;-74
2021/05/19 00:36:25;;;;;;;;;;;20.20;42.60;;;;;;454300;261;1254;-74
2021/05/19 00:38:27;;;;;;;;;;;20.20;42.60;;;;;;454388;261;1232;-74
2021/05/19 00:40:28;;;;;;;;;;;20.20;42.60;;;;;;454407;261;982;-74
2021/05/19 00:42:29;;;;;;;;;;;20.20;42.50;;;;;;458673;258;997;-74
2021/05/19 00:44:30;;;;;;;;;;;20.30;42.50;;;;;;454403;261;2199;-74
2021/05/19 00:46:32;;;;;;;;;;;20.30;42.40;;;;;;454397;261;1011;-74
2021/05/19 00:48:33;;;;;;;;;;;20.30;42.20;;;;;;454435;261;1284;-74
2021/05/19 00:50:34;;;;;;;;;;;20.30;42.30;;;;;;454382;261;1120;-74
2021/05/19 00:52:36;;;;;;;;;;;20.30;42.30;;;;;;458778;258;1154;-75
2021/05/19 00:54:37;;;;;;;;;;;20.40;42.30;;;;;;458807;258;964;-74
2021/05/19 00:56:38;;;;;;;;;;;20.40;42.20;;;;;;454410;261;1195;-74
2021/05/19 00:58:40;;;;;;;;;;;20.30;42.20;;;;;;454456;261;1367;-74
2021/05/19 01:00:41;;;;;;;;;;;20.40;42.20;;;;;;458851;258;1243;-74
2021/05/19 01:02:42;;;;;;;;;;;20.40;42.10;;;;;;454376;261;1236;-74
2021/05/19 01:04:44;;;;;;;;;;;20.40;42.10;;;;;;454352;261;2203;-74
2021/05/19 01:06:50;;;;;;;;;;;20.30;42.20;;;;;;458480;258;1206;-74
2021/05/19 01:11:06;;;;;;;;;;;20.30;42.30;;;;;;457192;260;1163;-74
2021/05/19 01:13:07;;;;;;;;;;;20.30;42.30;;;;;;457239;260;1335;-74
2021/05/19 01:15:09;;;;;;;;;;;20.40;42.20;;;;;;457371;260;1172;-74
2021/05/19 01:17:10;;;;;;;;;;;20.30;42.20;;;;;;457196;256;1172;-74
2021/05/19 01:19:11;;;;;;;;;;;20.30;42.30;;;;;;457373;260;1053;-74
2021/05/19 01:21:12;;;;;;;;;;;20.30;42.20;;;;;;457294;260;1296;-74
2021/05/19 01:23:14;;;;;;;;;;;20.40;42.10;;;;;;457367;260;1147;-74
2021/05/19 01:25:15;;;;;;;;;;;20.30;42.20;;;;;;457392;260;2206;-74
2021/05/19 01:27:16;;;;;;;;;;;20.30;42.20;;;;;;457332;260;1352;-75
2021/05/19 01:29:18;;;;;;;;;;;20.40;42.10;;;;;;457334;260;1223;-74
2021/05/19 01:31:19;;;;;;;;;;;20.40;42.00;;;;;;457259;260;1148;-74
2021/05/19 01:33:20;;;;;;;;;;;20.40;41.90;;;;;;457204;260;1037;-74
2021/05/19 01:35:21;;;;;;;;;;;20.40;41.90;;;;;;457355;260;1004;-74
2021/05/19 01:37:23;;;;;;;;;;;20.40;41.90;;;;;;457269;260;1182;-74
2021/05/19 01:39:24;;;;;;;;;;;20.50;41.90;;;;;;457272;260;1032;-74
2021/05/19 01:41:25;;;;;;;;;;;20.40;41.80;;;;;;457301;260;1196;-74
2021/05/19 01:43:27;;;;;;;;;;;20.30;41.80;;;;;;457397;260;1100;-74
2021/05/19 01:45:28;;;;;;;;;;;20.40;41.90;;;;;;457358;260;2214;-74
2021/05/19 01:47:29;;;;;;;;;;;20.40;41.80;;;;;;457291;260;1270;-74
2021/05/19 01:49:30;;;;;;;;;;;20.40;41.80;;;;;;457331;260;942;-74
2021/05/19 01:51:32;;;;;;;;;;;20.40;41.80;;;;;;457280;255;1367;-74
2021/05/19 01:53:33;;;;;;;;;;;20.40;41.80;;;;;;457278;260;1134;-74
2021/05/19 01:55:34;;;;;;;;;;;20.40;41.90;;;;;;457270;260;1093;-74
2021/05/19 01:57:36;;;;;;;;;;;20.40;41.80;;;;;;457210;260;1218;-74
2021/05/19 01:59:37;;;;;;;;;;;20.40;41.80;;;;;;457255;260;1168;-74
2021/05/19 02:01:38;;;;;;;;;;;20.30;41.70;;;;;;457150;260;1151;-74
2021/05/19 02:03:39;;;;;;;;;;;20.30;41.70;;;;;;457295;260;1086;-74
2021/05/19 02:05:41;;;;;;;;;;;20.30;41.70;;;;;;457266;260;2210;-74
2021/05/19 02:07:42;;;;;;;;;;;20.40;41.70;;;;;;457299;260;1215;-74
2021/05/19 02:09:43;;;;;;;;;;;20.30;41.70;;;;;;457306;260;961;-74
2021/05/19 02:11:45;;;;;;;;;;;20.40;41.60;;;;;;457248;260;1234;-74
2021/05/19 02:13:46;;;;;;;;;;;20.30;41.60;;;;;;457339;260;969;-74
2021/05/19 02:15:47;;;;;;;;;;;20.30;41.70;;;;;;457372;260;1190;-74
2021/05/19 02:17:48;;;;;;;;;;;20.30;41.70;;;;;;457276;260;1153;-74
2021/05/19 02:19:50;;;;;;;;;;;20.30;41.70;;;;;;457282;260;990;-74
2021/05/19 02:21:51;;;;;;;;;;;20.30;41.70;;;;;;457211;260;1157;-75
2021/05/19 02:23:52;;;;;;;;;;;20.30;41.60;;;;;;457270;260;1152;-74
2021/05/19 02:25:54;;;;;;;;;;;20.30;41.60;;;;;;457308;260;2198;-75
2021/05/19 02:27:55;;;;;;;;;;;20.40;41.60;;;;;;457215;260;1207;-74
2021/05/19 02:29:56;;;;;;;;;;;20.30;41.60;;;;;;457375;260;1163;-74
2021/05/19 02:31:57;;;;;;;;;;;20.30;41.50;;;;;;457259;260;1265;-74
2021/05/19 02:33:59;;;;;;;;;;;20.30;41.60;;;;;;457273;260;1000;-74
2021/05/19 02:36:00;;;;;;;;;;;20.30;41.70;;;;;;457266;260;1122;-74
2021/05/19 02:38:01;;;;;;;;;;;20.30;41.60;;;;;;457299;260;1079;-74
2021/05/19 02:40:03;;;;;;;;;;;20.30;41.70;;;;;;457360;260;1082;-74
2021/05/19 02:42:04;;;;;;;;;;;20.30;41.70;;;;;;457321;260;1152;-74
2021/05/19 02:44:05;;;;;;;;;;;20.30;41.60;;;;;;457364;260;940;-74
2021/05/19 02:46:06;;;;;;;;;;;20.30;41.60;;;;;;457315;260;2191;-74
2021/05/19 02:48:08;;;;;;;;;;;20.30;41.60;;;;;;457315;260;1151;-74
2021/05/19 02:50:09;;;;;;;;;;;20.30;41.60;;;;;;457300;260;1075;-74
2021/05/19 02:52:10;;;;;;;;;;;20.30;41.50;;;;;;457161;260;1110;-74
2021/05/19 02:54:12;;;;;;;;;;;20.30;41.40;;;;;;457266;260;1038;-74
2021/05/19 02:56:13;;;;;;;;;;;20.40;41.50;;;;;;457234;255;1252;-74
2021/05/19 02:58:14;;;;;;;;;;;20.40;41.50;;;;;;457210;260;1143;-74
2021/05/19 03:00:15;;;;;;;;;;;20.40;41.40;;;;;;457356;260;1267;-74
2021/05/19 03:02:17;;;;;;;;;;;20.30;41.50;;;;;;457279;256;1237;-74
2021/05/19 03:04:18;;;;;;;;;;;20.20;41.60;;;;;;457360;260;1091;-74
2021/05/19 03:06:19;;;;;;;;;;;20.30;41.60;;;;;;457312;260;2191;-74
2021/05/19 03:08:21;;;;;;;;;;;20.20;41.60;;;;;;457253;260;1112;-74
2021/05/19 03:10:22;;;;;;;;;;;20.20;41.60;;;;;;457331;260;1097;-74
2021/05/19 03:12:23;;;;;;;;;;;20.20;41.60;;;;;;457286;260;1189;-74
2021/05/19 03:14:25;;;;;;;;;;;20.20;41.60;;;;;;457317;260;963;-74
2021/05/19 03:16:27;;;;;;;;;;;20.20;41.60;;;;;;457223;260;1685;-74
2021/05/19 03:18:28;;;;;;;;;;;20.20;41.70;;;;;;457201;260;1139;-74
2021/05/19 03:20:29;;;;;;;;;;;20.20;41.70;;;;;;457247;260;1190;-74
2021/05/19 03:22:30;;;;;;;;;;;20.20;41.80;;;;;;457172;260;1128;-74
2021/05/19 03:24:32;;;;;;;;;;;20.10;41.90;;;;;;457290;260;2210;-74
2021/05/19 03:26:33;;;;;;;;;;;20.20;41.80;;;;;;457234;260;1249;-74
2021/05/19 03:28:34;;;;;;;;;;;20.10;41.80;;;;;;457310;260;1094;-74
2021/05/19 03:30:36;;;;;;;;;;;20.20;41.80;;;;;;457249;260;1374;-74
2021/05/19 03:32:37;;;;;;;;;;;20.20;41.70;;;;;;457219;260;1179;-74
2021/05/19 03:34:38;;;;;;;;;;;20.20;41.70;;;;;;457338;260;1038;-74
2021/05/19 03:36:39;;;;;;;;;;;20.20;41.70;;;;;;457347;260;1197;-74
2021/05/19 03:38:41;;;;;;;;;;;20.20;41.70;;;;;;457356;260;1130;-74
2021/05/19 03:40:42;;;;;;;;;;;20.20;41.70;;;;;;457285;260;1182;-74
2021/05/19 03:42:43;;;;;;;;;;;20.20;41.60;;;;;;457273;260;1111;-74
2021/05/19 03:44:45;;;;;;;;;;;20.30;41.60;;;;;;457274;260;2211;-74
2021/05/19 03:46:47;;;;;;;;;;;20.20;41.60;;;;;;457181;260;1162;-74
2021/05/19 03:48:50;;;;;;;;;;;20.20;41.60;;;;;;457177;260;1397;-74
2021/05/19 03:50:49;;;;;;;;;;;20.30;41.60;;;;;;457196;260;1479;-74
2021/05/19 03:52:51;;;;;;;;;;;20.30;41.50;;;;;;457323;260;1281;-74
2021/05/19 03:54:52;;;;;;;;;;;20.30;41.50;;;;;;457330;260;1091;-74
2021/05/19 03:56:53;;;;;;;;;;;20.30;41.40;;;;;;457186;260;1251;-74
2021/05/19 03:58:54;;;;;;;;;;;20.30;41.50;;;;;;457305;260;1067;-74
2021/05/19 04:00:56;;;;;;;;;;;20.30;41.50;;;;;;457284;260;1221;-74
2021/05/19 04:02:57;;;;;;;;;;;20.30;41.50;;;;;;457262;260;1148;-74
2021/05/19 04:04:59;;;;;;;;;;;20.30;41.50;;;;;;457336;260;2207;-74
2021/05/19 04:07:00;;;;;;;;;;;20.30;41.60;;;;;;457349;260;1354;-74
2021/05/19 04:09:01;;;;;;;;;;;20.20;41.60;;;;;;457148;260;1052;-74
2021/05/19 04:11:02;;;;;;;;;;;20.30;41.80;;;;;;457249;260;1150;-74
2021/05/19 04:13:05;;;;;;;;;;;20.20;41.80;;;;;;457253;260;1081;-75
2021/05/19 04:15:05;;;;;;;;;;;20.20;42.00;;;;;;457161;260;1533;-75
2021/05/19 04:17:06;;;;;;;;;;;20.20;42.00;;;;;;457195;260;1154;-74
2021/05/19 04:19:08;;;;;;;;;;;20.30;42.00;;;;;;457292;260;1036;-74
2021/05/19 04:21:09;;;;;;;;;;;20.20;42.00;;;;;;457273;256;1200;-74
2021/05/19 04:23:10;;;;;;;;;;;20.20;42.10;;;;;;457308;260;1080;-74
2021/05/19 04:25:12;;;;;;;;;;;20.20;42.20;;;;;;457317;260;2194;-74
2021/05/19 04:27:13;;;;;;;;;;;20.20;42.20;;;;;;457215;260;1127;-74
2021/05/19 04:29:14;;;;;;;;;;;20.20;42.20;;;;;;457213;260;1288;-75
2021/05/19 04:31:16;;;;;;;;;;;20.20;42.30;;;;;;457138;256;1310;-74
2021/05/19 04:33:18;;;;;;;;;;;20.20;42.30;;;;;;457260;260;1270;-74
2021/05/19 04:35:18;;;;;;;;;;;20.30;42.40;;;;;;457131;260;1437;-74
2021/05/19 04:37:19;;;;;;;;;;;20.30;42.40;;;;;;457135;260;1119;-74
2021/05/19 04:39:21;;;;;;;;;;;20.30;42.40;;;;;;457086;260;1072;-75
2021/05/19 04:41:22;;;;;;;;;;;20.20;42.40;;;;;;457114;260;1051;-74
2021/05/19 04:43:23;;;;;;;;;;;20.30;42.60;;;;;;457150;260;1122;-74
2021/05/19 04:45:24;;;;;;;;;;;20.20;42.70;;;;;;457181;260;2214;-74
2021/05/19 04:47:26;;;;;;;;;;;20.20;42.90;;;;;;457191;260;1302;-75
2021/05/19 04:49:27;;;;;;;;;;;20.20;42.90;;;;;;457192;260;990;-74
2021/05/19 04:51:28;;;;;;;;;;;20.10;42.90;;;;;;457180;260;1202;-74
2021/05/19 04:53:29;;;;;;;;;;;20.20;42.90;;;;;;457184;260;1116;-74
2021/05/19 04:55:31;;;;;;;;;;;20.20;42.90;;;;;;457189;260;1159;-74
2021/05/19 04:57:32;;;;;;;;;;;20.20;42.80;;;;;;456950;260;1082;-74
2021/05/19 04:59:33;;;;;;;;;;;20.20;42.80;;;;;;457032;257;1203;-74
2021/05/19 05:01:35;;;;;;;;;;;20.30;42.80;;;;;;456954;260;1118;-74
2021/05/19 05:03:36;;;;;;;;;;;20.30;42.90;;;;;;457000;260;1182;-75
2021/05/19 05:05:37;;;;;;;;;;;20.30;42.80;;;;;;457041;260;2198;-74
2021/05/19 05:07:38;;;;;;;;;;;20.20;42.80;;;;;;457101;260;1074;-74
2021/05/19 05:09:40;;;;;;;;;;;20.20;42.70;;;;;;456942;260;1058;-74
2021/05/19 05:11:41;;;;;;;;;;;20.20;42.90;;;;;;456978;260;1218;-74
2021/05/19 05:13:42;;;;;;;;;;;20.20;43.00;;;;;;456999;260;1087;-74
2021/05/19 05:15:44;;;;;;;;;;;20.20;43.00;;;;;;457012;260;1146;-75
2021/05/19 05:17:45;;;;;;;;;;;20.30;43.00;;;;;;457102;260;1142;-74
2021/05/19 05:19:46;;;;;;;;;;;20.30;42.90;;;;;;457135;260;1173;-74
2021/05/19 05:21:47;;;;;;;;;;;20.30;42.90;;;;;;471069;252;1206;-75
2021/05/19 05:23:49;;;;;;;;;;;20.30;43.00;;;;;;454091;262;991;-74
2021/05/19 05:25:50;;;;;;;;;;;20.20;42.90;;;;;;454082;261;2223;-74
2021/05/19 05:27:51;;;;;;;;;;;20.20;43.10;;;;;;458403;258;1186;-74
2021/05/19 05:29:52;;;;;;;;;;;20.20;43.20;;;;;;458349;258;1043;-74
2021/05/19 05:31:54;;;;;;;;;;;20.30;43.20;;;;;;453993;261;1177;-74
2021/05/19 05:33:55;;;;;;;;;;;20.20;43.30;;;;;;453840;261;1359;-74
2021/05/19 05:35:56;;;;;;;;;;;20.20;43.20;;;;;;453891;261;1190;-74
2021/05/19 05:37:58;;;;;;;;;;;20.20;43.20;;;;;;454078;261;1118;-74
2021/05/19 05:39:59;;;;;;;;;;;20.30;43.10;;;;;;458409;258;1103;-75
2021/05/19 05:42:00;;;;;;;;;;;20.30;43.10;;;;;;454151;261;1065;-74
2021/05/19 05:44:01;;;;;;;;;;;20.30;43.10;;;;;;454607;255;1361;-74
2021/05/19 05:46:03;;;;;;;;;;;20.20;43.20;;;;;;458326;258;2158;-75
2021/05/19 05:48:04;;;;;;;;;;;20.30;43.30;;;;;;454103;261;1282;-74
2021/05/19 05:50:05;;;;;;;;;;;20.30;43.40;;;;;;454048;261;995;-74
2021/05/19 05:52:07;;;;;;;;;;;20.30;43.30;;;;;;453952;261;1088;-74
2021/05/19 05:54:08;;;;;;;;;;;20.20;43.40;;;;;;453959;261;1101;-74
2021/05/19 05:56:09;;;;;;;;;;;20.30;43.60;;;;;;453780;261;1101;-74
2021/05/19 05:58:10;;;;;;;;;;;20.20;43.60;;;;;;453870;261;1108;-75
2021/05/19 06:00:12;;;;;;;;;;;20.20;43.60;;;;;;453876;261;1194;-74
2021/05/19 06:02:13;;;;;;;;;;;20.20;43.70;;;;;;453831;257;1433;-75
2021/05/19 06:04:14;;;;;;;;;;;20.20;43.70;;;;;;453723;261;1290;-74
2021/05/19 06:06:16;;;;;;;;;;;20.30;43.70;;;;;;453912;257;2203;-74
2021/05/19 06:08:17;;;;;;;;;;;20.30;43.70;;;;;;453945;261;1224;-74
2021/05/19 06:10:18;;;;;;;;;;;20.30;43.60;;;;;;453884;261;1196;-74
2021/05/19 06:12:19;;;;;;;;;;;20.20;43.80;;;;;;453904;261;1237;-74
2021/05/19 06:14:21;;;;;;;;;;;20.30;43.80;;;;;;453920;261;1061;-74
2021/05/19 06:16:22;;;;;;;;;;;20.40;43.80;;;;;;453696;257;1170;-74
2021/05/19 06:18:23;;;;;;;;;;;20.30;43.90;;;;;;453763;257;1174;-74
2021/05/19 06:20:24;;;;;;;;;;;20.30;43.90;;;;;;453813;261;1090;-75
2021/05/19 06:22:26;;;;;;;;;;;20.30;43.90;;;;;;453784;261;1088;-75
2021/05/19 06:24:27;;;;;;;;;;;20.30;44.00;;;;;;458108;258;1102;-74
2021/05/19 06:26:28;;;;;;;;;;;20.30;44.00;;;;;;453849;261;2207;-75
2021/05/19 06:28:30;;;;;;;;;;;20.30;44.20;;;;;;453740;261;1145;-74
2021/05/19 06:30:31;;;;;;;;;;;20.30;44.20;;;;;;453695;261;1095;-74
2021/05/19 06:32:32;;;;;;;;;;;20.30;44.30;;;;;;453813;261;1101;-75
2021/05/19 06:34:35;;;;;;;;;;;20.30;44.20;;;;;;453671;261;1260;-74
2021/05/19 06:36:37;;;;;;;;;;;20.30;44.30;;;;;;453837;257;1385;-75
2021/05/19 06:38:36;;;;;;;;;;;20.30;44.30;;;;;;457968;259;1393;-75
2021/05/19 06:40:37;;;;;;;;;;;20.30;44.20;;;;;;453633;261;1014;-74
2021/05/19 06:42:38;;;;;;;;;;;20.30;44.30;;;;;;453783;261;1206;-74
2021/05/19 06:44:40;;;;;;;;;;;20.30;44.10;;;;;;453673;261;1160;-74
2021/05/19 06:46:41;;;;;;;;;;;20.30;44.20;;;;;;453614;261;2200;-74
2021/05/19 06:48:42;;;;;;;;;;;20.30;44.30;;;;;;453641;261;1290;-74
2021/05/19 06:50:45;;;;;;;;;;;20.40;44.10;;;;;;453509;261;1408;-74
2021/05/19 06:52:45;;;;;;;;;;;20.40;44.10;;;;;;457718;259;1509;-75
2021/05/19 06:54:47;;;;;;;;;;;20.50;43.80;;;;;;453614;261;1083;-74
2021/05/19 06:56:48;;;;;;;;;;;20.70;43.60;;;;;;453574;261;1216;-74
2021/05/19 06:58:49;;;;;;;;;;;20.70;43.40;;;;;;457956;258;1251;-74
2021/05/19 07:00:50;;;;;;;;;;;20.70;43.30;;;;;;458029;257;1283;-74
2021/05/19 07:02:52;;;;;;;;;;;20.70;43.30;;;;;;453656;261;1283;-74
2021/05/19 07:04:53;;;;;;;;;;;20.80;43.20;;;;;;453713;257;1146;-74
2021/05/19 07:06:54;;;;;;;;;;;20.80;43.20;;;;;;457864;258;2226;-75
2021/05/19 07:08:55;;;;;;;;;;;20.80;43.00;;;;;;453833;261;796;-74
2021/05/19 07:10:57;;;;;;;;;;;20.80;43.20;;;;;;453559;258;1226;-74
2021/05/19 07:12:58;;;;;;;;;;;20.90;43.30;;;;;;458080;258;1056;-75
2021/05/19 07:15:01;;;;;;;;;;;20.80;43.30;;;;;;456767;261;779;-74
2021/05/19 07:17:01;;;;;;;;;;;20.80;43.30;;;;;;456477;260;1308;-74
2021/05/19 07:19:02;;;;;;;;;;;20.80;43.40;;;;;;456680;260;1181;-74
2021/05/19 07:21:03;;;;;;;;;;;20.80;43.30;;;;;;456348;260;1146;-74
2021/05/19 07:23:04;;;;;;;;;;;20.80;43.30;;;;;;456294;260;1184;-74
2021/05/19 07:25:06;;;;;;;;;;;20.80;43.30;;;;;;456535;260;1156;-74
2021/05/19 07:27:07;;;;;;;;;;;20.80;43.30;;;;;;456554;260;2183;-74
2021/05/19 07:29:08;;;;;;;;;;;20.70;43.30;;;;;;456459;256;1136;-74
2021/05/19 07:31:10;;;;;;;;;;;20.70;43.40;;;;;;456492;260;1182;-74
2021/05/19 07:33:12;;;;;;;;;;;20.70;43.50;;;;;;456512;260;1127;-74
2021/05/19 07:35:12;;;;;;;;;;;20.80;43.50;;;;;;456416;260;1375;-74
2021/05/19 07:37:13;;;;;;;;;;;20.80;43.50;;;;;;456271;260;1134;-74
2021/05/19 07:39:15;;;;;;;;;;;20.80;43.30;;;;;;456371;260;1160;-74
2021/05/19 07:41:16;;;;;;;;;;;20.80;43.30;;;;;;456332;260;1228;-75
2021/05/19 07:43:17;;;;;;;;;;;20.80;43.30;;;;;;456321;260;1205;-74
2021/05/19 07:45:18;;;;;;;;;;;20.80;43.20;;;;;;456413;260;1038;-74
2021/05/19 07:47:20;;;;;;;;;;;20.80;43.20;;;;;;456514;260;2197;-74
2021/05/19 07:49:21;;;;;;;;;;;20.80;43.20;;;;;;455953;260;1045;-74
2021/05/19 07:51:22;;;;;;;;;;;20.80;43.10;;;;;;455892;260;1103;-74
2021/05/19 07:53:24;;;;;;;;;;;20.80;43.00;;;;;;456277;260;1122;-74
2021/05/19 07:55:27;;;;;;;;;;;20.80;43.00;;;;;;456101;260;1088;-74
2021/05/19 07:57:38;;;;;;;;;;;20.90;43.00;;;;;;455954;260;1302;-74
2021/05/19 07:59:29;;;;;;;;;;;20.80;43.00;;;;;;455630;260;1495;-74
2021/05/19 08:01:43;;;;;;;;;;;20.80;43.10;;;;;;456268;260;1387;-74
2021/05/19 08:03:33;;;;;;;;;;;20.80;43.10;;;;;;455719;260;1423;-74
2021/05/19 08:05:35;;;;;;;;;;;20.70;43.10;;;;;;456145;260;1195;-74
2021/05/19 08:07:36;;;;;;;;;;;20.90;43.00;;;;;;456242;260;2280;-74
2021/05/19 08:09:37;;;;;;;;;;;20.80;43.10;;;;;;456252;260;1222;-74
2021/05/19 08:11:38;;;;;;;;;;;20.80;43.00;;;;;;456196;260;1197;-74
2021/05/19 08:13:40;;;;;;;;;;;20.80;43.10;;;;;;456421;260;1058;-75
2021/05/19 08:15:41;;;;;;;;;;;20.80;43.00;;;;;;470253;252;1453;-74
2021/05/19 08:17:42;;;;;;;;;;;20.80;43.10;;;;;;453419;262;1184;-74
2021/05/19 08:19:43;;;;;;;;;;;20.80;43.10;;;;;;453500;261;1171;-75
2021/05/19 08:21:45;;;;;;;;;;;20.70;43.10;;;;;;453660;261;1232;-75
2021/05/19 08:23:46;;;;;;;;;;;20.80;43.30;;;;;;453891;261;1310;-74
2021/05/19 08:25:47;;;;;;;;;;;20.80;43.10;;;;;;453675;261;1313;-74
2021/05/19 08:27:49;;;;;;;;;;;20.80;43.00;;;;;;453833;261;2208;-75
2021/05/19 08:29:51;;;;;;;;;;;20.80;43.00;;;;;;453796;261;1340;-74
2021/05/19 08:31:52;;;;;;;;;;;20.70;43.00;;;;;;453889;257;1384;-74
2021/05/19 08:33:56;;;;;;;;;;;20.70;43.00;;;;;;453860;261;847;-74
2021/05/19 08:35:54;;;;;;;;;;;20.70;43.00;;;;;;453817;257;1358;-75
2021/05/19 08:37:56;;;;;;;;;;;20.70;43.00;;;;;;458263;258;1161;-74
2021/05/19 08:39:57;;;;;;;;;;;20.80;43.00;;;;;;453983;261;833;-75
2021/05/19 08:41:58;;;;;;;;;;;20.70;42.90;;;;;;453626;261;1175;-74
2021/05/19 08:44:00;;;;;;;;;;;20.70;43.00;;;;;;454014;261;1315;-74
2021/05/19 08:46:01;;;;;;;;;;;20.70;42.90;;;;;;454066;261;1481;-74
2021/05/19 08:48:02;;;;;;;;;;;20.80;43.00;;;;;;453633;261;2196;-74
2021/05/19 08:50:03;;;;;;;;;;;20.80;43.00;;;;;;453509;261;1062;-74
2021/05/19 08:52:05;;;;;;;;;;;20.80;42.70;;;;;;456511;260;1195;-74
2021/05/19 08:54:07;;;;;;;;;;;20.80;42.60;;;;;;456281;260;1132;-75
2021/05/19 08:56:10;;;;;;;;;;;20.90;42.60;;;;;;456281;256;1344;-74
2021/05/19 09:00:12;;;;;;;;;;;20.90;42.50;;;;;;479076;248;1084;-74
2021/05/19 09:02:13;;;;;;;;;;;20.90;42.50;;;;;;477668;249;1253;-74
2021/05/19 09:04:19;;;;;;;;;;;20.90;42.40;;;;;;478367;248;1286;-74
2021/05/19 09:06:18;;;;;;;;;;;20.90;42.40;;;;;;477797;248;1322;-74
2021/05/19 09:08:20;;;;;;;;;;;20.90;42.40;;;;;;477884;248;2198;-74
2021/05/19 09:10:21;;;;;;;;;;;20.90;42.60;;;;;;478666;248;727;-74
2021/05/19 09:12:22;;;;;;;;;;;20.90;42.60;;;;;;478638;248;1237;-74
2021/05/19 09:14:23;;;;;;;;;;;20.90;42.60;;;;;;478468;248;1121;-74
2021/05/19 09:16:25;;;;;;;;;;;20.80;42.50;;;;;;478435;248;1137;-74
2021/05/19 09:18:26;;;;;;;;;;;20.80;42.50;;;;;;478271;248;1129;-74
2021/05/19 09:20:27;;;;;;;;;;;20.80;42.50;;;;;;477988;248;1387;-74
2021/05/19 09:22:30;;;;;;;;;;;20.80;42.50;;;;;;477403;248;1126;-74
2021/05/19 09:24:31;;;;;;;;;;;20.70;42.50;;;;;;477611;248;1107;-74
2021/05/19 09:26:32;;;;;;;;;;;20.80;42.50;;;;;;477875;248;1176;-74
2021/05/19 09:28:34;;;;;;;;;;;20.80;42.40;;;;;;478421;248;2247;-74
2021/05/19 09:30:35;;;;;;;;;;;20.80;42.30;;;;;;478317;248;1170;-74
2021/05/19 09:32:37;;;;;;;;;;;20.80;42.30;;;;;;478449;248;1316;-74
2021/05/19 09:34:38;;;;;;;;;;;20.80;42.20;;;;;;478879;248;795;-74
2021/05/19 09:36:39;;;;;;;;;;;20.80;42.10;;;;;;478644;248;1550;-74
2021/05/19 09:38:41;;;;;;;;;;;20.90;42.00;;;;;;478495;248;776;-74
2021/05/19 09:40:42;;;;;;;;;;;21.00;41.90;;;;;;478888;248;1463;-74
2021/05/19 09:42:45;;;;;;;;;;;21.00;41.80;;;;;;478503;248;1364;-75
2021/05/19 09:44:46;;;;;;;;;;;20.90;41.90;;;;;;478612;248;1436;-74
2021/05/19 09:46:46;;;;;;;;;;;20.90;41.90;;;;;;478265;248;2206;-74
2021/05/19 09:48:47;;;;;;;;;;;20.80;42.10;;;;;;478442;248;1078;-74
2021/05/19 09:50:50;;;;;;;;;;;20.70;42.20;;;;;;478356;246;1340;-74
2021/05/19 09:52:50;;;;;;;;;;;20.80;42.10;;;;;;478363;248;1291;-74
2021/05/19 09:54:51;;;;;;;;;;;20.80;42.00;;;;;;478400;248;1055;-74
2021/05/19 09:56:52;;;;;;;;;;;20.90;42.00;;;;;;478448;248;1142;-74
2021/05/19 09:58:54;;;;;;;;;;;20.80;41.90;;;;;;478411;248;1179;-74
2021/05/19 10:00:55;;;;;;;;;;;20.90;41.80;;;;;;478362;248;1286;-74
2021/05/19 10:02:56;;;;;;;;;;;20.90;41.80;;;;;;478432;248;1231;-74
2021/05/19 10:05:05;;;;;;;;;;;20.90;41.70;;;;;;478495;248;1117;-74
2021/05/19 10:06:59;;;;;;;;;;;20.90;41.70;;;;;;477951;248;2186;-74
2021/05/19 10:09:00;;;;;;;;;;;20.90;41.60;;;;;;478236;248;1348;-74
2021/05/19 10:11:03;;;;;;;;;;;21.00;41.50;;;;;;478356;248;1379;-74
2021/05/19 10:13:03;;;;;;;;;;;21.00;41.40;;;;;;478354;248;1354;-75
2021/05/19 10:15:04;;;;;;;;;;;21.00;41.40;;;;;;478406;248;1240;-74
2021/05/19 10:17:05;;;;;;;;;;;20.90;41.40;;;;;;478445;248;1151;-75
2021/05/19 10:19:06;;;;;;;;;;;20.90;41.50;;;;;;478457;248;1075;-75
2021/05/19 10:21:08;;;;;;;;;;;20.80;41.60;;;;;;478470;248;1283;-74
2021/05/19 10:23:11;;;;;;;;;;;20.80;41.70;;;;;;478627;248;1354;-75
2021/05/19 10:25:18;;;;;;;;;;;20.90;41.70;;;;;;478194;248;1248;-75
2021/05/19 10:27:18;;;;;;;;;;;20.80;41.70;;;;;;478153;248;2198;-75
2021/05/19 10:29:18;;;;;;;;;;;20.90;41.70;;;;;;478526;249;1394;-75
2021/05/19 10:31:19;;;;;;;;;;;20.90;41.60;;;;;;478561;248;1338;-74
2021/05/19 10:33:21;;;;;;;;;;;20.90;41.50;;;;;;478458;248;1081;-74
2021/05/19 10:35:22;;;;;;;;;;;21.00;41.40;;;;;;478397;248;1043;-74
2021/05/19 10:37:23;;;;;;;;;;;21.00;41.30;;;;;;478191;248;1341;-74
2021/05/19 10:39:25;;;;;;;;;;;21.00;41.20;;;;;;478185;248;1124;-74
2021/05/19 10:41:26;;;;;;;;;;;21.00;41.20;;;;;;478292;248;1131;-74
2021/05/19 10:43:27;;;;;;;;;;;21.00;41.20;;;;;;478336;248;1197;-74
2021/05/19 10:45:28;;;;;;;;;;;20.90;41.30;;;;;;478120;248;1219;-74
2021/05/19 10:47:30;;;;;;;;;;;20.90;41.30;;;;;;477945;248;2187;-74
2021/05/19 10:49:31;;;;;;;;;;;20.90;41.10;;;;;;478447;248;1119;-74
2021/05/19 10:51:36;;;;;;;;;;;20.80;41.20;;;;;;478434;248;1380;-74
2021/05/19 10:58:35;;;;;;;;;;;20.90;40.80;;;;;;452526;262;1243;-74
2021/05/19 11:00:33;;;;;;;;;;;20.90;40.80;;;;;;460238;249;1366;-75
2021/05/19 11:02:35;;;;;;;;;;;20.90;40.80;;;;;;478211;248;1123;-75
2021/05/19 11:04:36;;;;;;;;;;;20.90;40.80;;;;;;478441;248;1105;-75
2021/05/19 11:06:37;;;;;;;;;;;20.90;40.70;;;;;;478342;248;1120;-75
2021/05/19 11:08:39;;;;;;;;;;;20.90;40.70;;;;;;477999;248;2186;-74
2021/05/19 11:10:41;;;;;;;;;;;20.90;40.80;;;;;;478086;248;1174;-74
2021/05/19 11:12:50;;;;;;;;;;;20.90;40.90;;;;;;477950;248;1414;-74
2021/05/19 11:14:52;;;;;;;;;;;21.00;40.80;;;;;;478589;248;1384;-74
2021/05/19 11:16:58;;;;;;;;;;;20.90;40.90;;;;;;478222;248;1402;-74
2021/05/19 11:19:09;;;;;;;;;;;20.90;40.80;;;;;;478677;248;1386;-75
2021/05/19 11:21:09;;;;;;;;;;;20.90;40.80;;;;;;478611;248;1419;-74
2021/05/19 11:23:11;;;;;;;;;;;20.90;40.70;;;;;;478513;248;1093;-74
2021/05/19 11:25:14;;;;;;;;;;;20.90;40.70;;;;;;478365;248;1340;-74
2021/05/19 11:27:14;;;;;;;;;;;20.90;40.70;;;;;;478643;248;2194;-74
2021/05/19 11:29:16;;;;;;;;;;;21.00;40.80;;;;;;478441;248;1168;-74
2021/05/19 11:31:17;;;;;;;;;;;20.90;40.80;;;;;;478426;248;1206;-74
2021/05/19 11:33:21;;;;;;;;;;;20.90;41.00;;;;;;478266;248;1070;-75
2021/05/19 11:35:20;;;;;;;;;;;20.80;41.10;;;;;;478137;248;1407;-74
2021/05/19 11:37:21;;;;;;;;;;;20.80;41.10;;;;;;478272;248;1037;-75
2021/05/19 11:39:22;;;;;;;;;;;20.80;41.00;;;;;;478065;248;1121;-75
2021/05/19 11:41:23;;;;;;;;;;;20.70;41.10;;;;;;478241;248;1331;-74
2021/05/19 11:43:25;;;;;;;;;;;20.70;41.20;;;;;;478263;248;1095;-75
2021/05/19 11:45:26;;;;;;;;;;;20.70;41.30;;;;;;478200;248;1410;-74
2021/05/19 11:47:27;;;;;;;;;;;20.70;41.60;;;;;;478155;248;2178;-74
2021/05/19 11:49:29;;;;;;;;;;;20.80;41.60;;;;;;477430;248;1302;-74
2021/05/19 11:51:31;;;;;;;;;;;20.90;41.70;;;;;;477620;248;1354;-74
2021/05/19 11:53:31;;;;;;;;;;;20.80;41.70;;;;;;477516;248;1298;-74
2021/05/19 11:55:33;;;;;;;;;;;20.80;41.70;;;;;;478011;248;1081;-74
2021/05/19 11:57:34;;;;;;;;;;;20.80;41.80;;;;;;478121;248;1146;-75
2021/05/19 11:59:38;;;;;;;;;;;20.90;41.90;;;;;;478022;248;1087;-75
2021/05/19 12:01:37;;;;;;;;;;;20.90;42.00;;;;;;477584;248;1489;-74
2021/05/19 12:03:38;;;;;;;;;;;20.90;42.00;;;;;;477922;248;1057;-75
2021/05/19 12:05:39;;;;;;;;;;;20.90;42.00;;;;;;478154;248;1298;-75